sensor_id;sensor_type;location;lat;lon;timestamp;pressure;altitude;pressure_sealevel;temperature;humidity
15568;BME280;7885;42.596;23.044;2023-03-15T00:00:19;91877.78;;;7.57;52.49
15568;BME280;7885;42.596;23.044;2023-03-15T00:02:46;91913.19;;;7.77;53.40
15568;BME280;7885;42.596;23.044;2023-03-15T00:05:13;91922.44;;;7.79;53.51
15568;BME280;7885;42.596;23.044;2023-03-15T00:07:40;91934.72;;;7.91;53.90
15568;BME280;7885;42.596;23.044;2023-03-15T00:10:07;91888.47;;;7.71;54.23
15568;BME280;7885;42.596;23.044;2023-03-15T00:12:34;91933.84;;;8.01;54.01
15568;BME280;7885;42.596;23.044;2023-03-15T00:15:03;91937.66;;;8.07;53.63
15568;BME280;7885;42.596;23.044;2023-03-15T00:17:30;91936.06;;;8.13;52.71
15568;BME280;7885;42.596;23.044;2023-03-15T00:19:59;91913.72;;;8.02;52.39
15568;BME280;7885;42.596;23.044;2023-03-15T00:22:25;91924.47;;;8.09;51.64
15568;BME280;7885;42.596;23.044;2023-03-15T00:24:54;91919.72;;;8.20;51.82
15568;BME280;7885;42.596;23.044;2023-03-15T00:27:20;91926.63;;;8.28;51.76
15568;BME280;7885;42.596;23.044;2023-03-15T00:29:47;91882.72;;;8.06;51.48
15568;BME280;7885;42.596;23.044;2023-03-15T00:32:15;91903.44;;;8.24;52.26
15568;BME280;7885;42.596;23.044;2023-03-15T00:34:42;91906.50;;;8.26;52.28
15568;BME280;7885;42.596;23.044;2023-03-15T00:37:13;91898.69;;;8.31;52.36
15568;BME280;7885;42.596;23.044;2023-03-15T00:39:41;91858.34;;;8.06;52.42
15568;BME280;7885;42.596;23.044;2023-03-15T00:42:10;91857.47;;;8.13;52.43
15568;BME280;7885;42.596;23.044;2023-03-15T00:44:40;91860.16;;;8.17;52.36
15568;BME280;7885;42.596;23.044;2023-03-15T00:47:07;91891.41;;;8.58;51.94
15568;BME280;7885;42.596;23.044;2023-03-15T00:49:35;91903.75;;;8.63;52.68
15568;BME280;7885;42.596;23.044;2023-03-15T00:52:02;91864.19;;;8.35;53.22
15568;BME280;7885;42.596;23.044;2023-03-15T00:54:29;91865.28;;;8.41;53.09
15568;BME280;7885;42.596;23.044;2023-03-15T00:56:57;91887.91;;;8.61;53.53
15568;BME280;7885;42.596;23.044;2023-03-15T00:59:24;91854.56;;;8.34;53.21
15568;BME280;7885;42.596;23.044;2023-03-15T01:01:51;91860.69;;;8.38;53.83
15568;BME280;7885;42.596;23.044;2023-03-15T01:04:18;91830.25;;;8.24;53.95
15568;BME280;7885;42.596;23.044;2023-03-15T01:06:46;91849.00;;;8.41;54.61
15568;BME280;7885;42.596;23.044;2023-03-15T01:09:13;91846.81;;;8.33;55.37
15568;BME280;7885;42.596;23.044;2023-03-15T01:11:40;91862.91;;;8.47;55.29
15568;BME280;7885;42.596;23.044;2023-03-15T01:14:08;91864.28;;;8.58;55.32
15568;BME280;7885;42.596;23.044;2023-03-15T01:16:35;91842.91;;;8.37;55.60
15568;BME280;7885;42.596;23.044;2023-03-15T01:19:02;91870.81;;;8.65;55.29
15568;BME280;7885;42.596;23.044;2023-03-15T01:21:30;91873.88;;;8.67;55.07
15568;BME280;7885;42.596;23.044;2023-03-15T01:23:58;91839.53;;;8.56;54.32
15568;BME280;7885;42.596;23.044;2023-03-15T01:26:25;91811.75;;;8.49;54.38
15568;BME280;7885;42.596;23.044;2023-03-15T01:28:52;91812.84;;;8.55;53.85
15568;BME280;7885;42.596;23.044;2023-03-15T01:31:21;91849.63;;;8.83;54.21
15568;BME280;7885;42.596;23.044;2023-03-15T01:33:49;91804.63;;;8.58;54.67
15568;BME280;7885;42.596;23.044;2023-03-15T01:36:16;91832.28;;;8.77;54.89
15568;BME280;7885;42.596;23.044;2023-03-15T01:38:43;91786.94;;;8.50;55.07
15568;BME280;7885;42.596;23.044;2023-03-15T01:41:13;91822.44;;;8.86;54.95
15568;BME280;7885;42.596;23.044;2023-03-15T01:43:40;91791.16;;;8.55;55.62
15568;BME280;7885;42.596;23.044;2023-03-15T01:46:25;91823.38;;;8.76;56.01
15568;BME280;7885;42.596;23.044;2023-03-15T01:48:56;91817.56;;;8.78;56.03
15568;BME280;7885;42.596;23.044;2023-03-15T01:51:27;91776.72;;;8.61;56.72
15568;BME280;7885;42.596;23.044;2023-03-15T01:53:59;91814.63;;;8.92;58.63
15568;BME280;7885;42.596;23.044;2023-03-15T01:56:31;91760.81;;;8.63;58.85
15568;BME280;7885;42.596;23.044;2023-03-15T01:59:00;91804.28;;;8.83;59.10
15568;BME280;7885;42.596;23.044;2023-03-15T02:01:28;91808.38;;;8.95;59.45
15568;BME280;7885;42.596;23.044;2023-03-15T02:04:01;91776.03;;;8.81;59.18
15568;BME280;7885;42.596;23.044;2023-03-15T02:06:29;91787.84;;;8.94;59.33
15568;BME280;7885;42.596;23.044;2023-03-15T02:09:02;91797.19;;;8.93;59.40
15568;BME280;7885;42.596;23.044;2023-03-15T02:11:32;91785.63;;;8.89;59.42
15568;BME280;7885;42.596;23.044;2023-03-15T02:14:04;91773.78;;;8.76;59.66
15568;BME280;7885;42.596;23.044;2023-03-15T02:16:31;91786.16;;;8.77;59.19
15568;BME280;7885;42.596;23.044;2023-03-15T02:18:59;91797.28;;;8.86;58.89
15568;BME280;7885;42.596;23.044;2023-03-15T02:21:35;91790.66;;;8.87;59.04
15568;BME280;7885;42.596;23.044;2023-03-15T02:24:18;91772.63;;;8.77;58.81
15568;BME280;7885;42.596;23.044;2023-03-15T02:26:53;91794.94;;;8.88;59.03
15568;BME280;7885;42.596;23.044;2023-03-15T02:29:24;91788.34;;;8.89;59.24
15568;BME280;7885;42.596;23.044;2023-03-15T02:31:52;91793.03;;;8.85;57.77
15568;BME280;7885;42.596;23.044;2023-03-15T02:34:19;91766.56;;;8.66;58.50
15568;BME280;7885;42.596;23.044;2023-03-15T02:36:50;91791.09;;;8.85;58.76
15568;BME280;7885;42.596;23.044;2023-03-15T02:39:19;91787.13;;;8.90;58.53
15568;BME280;7885;42.596;23.044;2023-03-15T02:41:48;91780.66;;;8.84;58.89
15568;BME280;7885;42.596;23.044;2023-03-15T02:44:20;91769.94;;;8.73;59.08
15568;BME280;7885;42.596;23.044;2023-03-15T02:46:50;91760.47;;;8.61;58.40
15568;BME280;7885;42.596;23.044;2023-03-15T02:49:20;91771.19;;;8.69;58.08
15568;BME280;7885;42.596;23.044;2023-03-15T02:51:49;91726.69;;;8.39;58.29
15568;BME280;7885;42.596;23.044;2023-03-15T02:54:15;91759.72;;;8.57;58.37
15568;BME280;7885;42.596;23.044;2023-03-15T02:56:42;91722.47;;;8.35;58.62
15568;BME280;7885;42.596;23.044;2023-03-15T02:59:09;91732.09;;;8.39;58.34
15568;BME280;7885;42.596;23.044;2023-03-15T03:01:37;91733.03;;;8.29;58.11
15568;BME280;7885;42.596;23.044;2023-03-15T03:04:06;91735.16;;;8.41;57.04
15568;BME280;7885;42.596;23.044;2023-03-15T03:06:33;91731.47;;;8.28;56.85
15568;BME280;7885;42.596;23.044;2023-03-15T03:08:59;91719.63;;;8.15;57.50
15568;BME280;7885;42.596;23.044;2023-03-15T03:11:29;91733.38;;;8.01;57.33
15568;BME280;7885;42.596;23.044;2023-03-15T03:13:55;91739.59;;;7.98;57.60
15568;BME280;7885;42.596;23.044;2023-03-15T03:16:22;91671.00;;;7.47;58.15
15568;BME280;7885;42.596;23.044;2023-03-15T03:18:49;91731.50;;;7.94;58.33
15568;BME280;7885;42.596;23.044;2023-03-15T03:21:18;91691.31;;;7.59;58.48
15568;BME280;7885;42.596;23.044;2023-03-15T03:23:48;91733.97;;;7.85;59.72
15568;BME280;7885;42.596;23.044;2023-03-15T03:26:17;91721.38;;;7.72;60.03
15568;BME280;7885;42.596;23.044;2023-03-15T03:28:45;91717.53;;;7.66;60.32
15568;BME280;7885;42.596;23.044;2023-03-15T03:31:18;91725.97;;;7.75;60.24
15568;BME280;7885;42.596;23.044;2023-03-15T03:33:46;91725.97;;;7.75;61.45
15568;BME280;7885;42.596;23.044;2023-03-15T03:36:13;91723.34;;;7.68;61.99
15568;BME280;7885;42.596;23.044;2023-03-15T03:38:43;91729.19;;;7.62;63.61
15568;BME280;7885;42.596;23.044;2023-03-15T03:41:11;91672.44;;;7.22;62.65
15568;BME280;7885;42.596;23.044;2023-03-15T03:43:38;91724.59;;;7.59;63.11
15568;BME280;7885;42.596;23.044;2023-03-15T03:46:05;91724.97;;;7.61;63.17
15568;BME280;7885;42.596;23.044;2023-03-15T03:48:32;91711.44;;;7.61;64.40
15568;BME280;7885;42.596;23.044;2023-03-15T03:50:59;91707.09;;;7.68;64.37
15568;BME280;7885;42.596;23.044;2023-03-15T03:53:25;91723.59;;;7.77;63.88
15568;BME280;7885;42.596;23.044;2023-03-15T03:55:54;91704.31;;;7.75;63.66
15568;BME280;7885;42.596;23.044;2023-03-15T03:58:21;91708.44;;;7.83;63.98
15568;BME280;7885;42.596;23.044;2023-03-15T04:00:48;91704.13;;;7.89;63.51
15568;BME280;7885;42.596;23.044;2023-03-15T04:03:18;91698.63;;;7.96;62.72
15568;BME280;7885;42.596;23.044;2023-03-15T04:05:45;91675.63;;;7.77;62.79
15568;BME280;7885;42.596;23.044;2023-03-15T04:08:12;91699.78;;;7.95;63.56
15568;BME280;7885;42.596;23.044;2023-03-15T04:10:39;91699.78;;;7.95;63.21
15568;BME280;7885;42.596;23.044;2023-03-15T04:13:07;91687.41;;;7.94;62.28
15568;BME280;7885;42.596;23.044;2023-03-15T04:15:33;91690.03;;;8.01;61.93
15568;BME280;7885;42.596;23.044;2023-03-15T04:18:00;91689.94;;;8.08;62.43
15568;BME280;7885;42.596;23.044;2023-03-15T04:20:30;91693.09;;;8.03;62.47
15568;BME280;7885;42.596;23.044;2023-03-15T04:22:59;91632.50;;;7.63;62.99
15568;BME280;7885;42.596;23.044;2023-03-15T04:25:26;91682.72;;;7.98;63.07
15568;BME280;7885;42.596;23.044;2023-03-15T04:27:53;91694.53;;;8.11;62.85
15568;BME280;7885;42.596;23.044;2023-03-15T04:30:25;91692.44;;;7.95;63.80
15568;BME280;7885;42.596;23.044;2023-03-15T04:32:53;91709.97;;;8.14;64.46
15568;BME280;7885;42.596;23.044;2023-03-15T04:35:24;91696.16;;;8.05;64.90
15568;BME280;7885;42.596;23.044;2023-03-15T04:37:51;91685.41;;;7.98;65.38
15568;BME280;7885;42.596;23.044;2023-03-15T04:40:18;91698.44;;;8.10;65.03
15568;BME280;7885;42.596;23.044;2023-03-15T04:42:48;91690.66;;;8.12;65.32
15568;BME280;7885;42.596;23.044;2023-03-15T04:45:15;91650.50;;;7.77;65.58
15568;BME280;7885;42.596;23.044;2023-03-15T04:47:43;91690.94;;;7.91;66.41
15568;BME280;7885;42.596;23.044;2023-03-15T04:50:10;91700.81;;;7.74;67.01
15568;BME280;7885;42.596;23.044;2023-03-15T04:52:37;91680.69;;;7.41;69.03
15568;BME280;7885;42.596;23.044;2023-03-15T04:55:05;91650.91;;;7.11;69.14
15568;BME280;7885;42.596;23.044;2023-03-15T04:57:31;91706.41;;;7.26;70.19
15568;BME280;7885;42.596;23.044;2023-03-15T04:59:58;91703.38;;;7.17;70.43
15568;BME280;7885;42.596;23.044;2023-03-15T05:02:25;91704.19;;;7.14;71.56
15568;BME280;7885;42.596;23.044;2023-03-15T05:04:54;91618.25;;;6.57;72.87
15568;BME280;7885;42.596;23.044;2023-03-15T05:07:20;91694.72;;;6.99;74.03
15568;BME280;7885;42.596;23.044;2023-03-15T05:09:47;91704.31;;;7.03;74.10
15568;BME280;7885;42.596;23.044;2023-03-15T05:12:14;91704.91;;;7.22;74.65
15568;BME280;7885;42.596;23.044;2023-03-15T05:14:41;91691.81;;;7.17;74.60
15568;BME280;7885;42.596;23.044;2023-03-15T05:17:07;91659.41;;;7.13;73.76
15568;BME280;7885;42.596;23.044;2023-03-15T05:19:35;91702.19;;;7.55;73.27
15568;BME280;7885;42.596;23.044;2023-03-15T05:22:03;91707.38;;;7.77;72.74
15568;BME280;7885;42.596;23.044;2023-03-15T05:24:30;91689.47;;;7.83;71.99
15568;BME280;7885;42.596;23.044;2023-03-15T05:26:56;91650.78;;;7.86;71.43
15568;BME280;7885;42.596;23.044;2023-03-15T05:29:23;91646.06;;;7.90;71.19
15568;BME280;7885;42.596;23.044;2023-03-15T05:31:50;91676.09;;;8.29;70.74
15568;BME280;7885;42.596;23.044;2023-03-15T05:34:18;91686.16;;;8.55;69.54
15568;BME280;7885;42.596;23.044;2023-03-15T05:36:48;91690.63;;;8.66;69.66
15568;BME280;7885;42.596;23.044;2023-03-15T05:39:16;91661.94;;;8.68;69.12
15568;BME280;7885;42.596;23.044;2023-03-15T05:41:43;91677.94;;;8.86;68.73
15568;BME280;7885;42.596;23.044;2023-03-15T05:44:10;91650.44;;;8.84;67.63
15568;BME280;7885;42.596;23.044;2023-03-15T05:46:37;91661.53;;;8.93;67.79
15568;BME280;7885;42.596;23.044;2023-03-15T05:49:04;91663.50;;;9.12;67.17
15568;BME280;7885;42.596;23.044;2023-03-15T05:51:30;91678.50;;;9.20;66.91
15568;BME280;7885;42.596;23.044;2023-03-15T05:53:57;91644.28;;;9.03;66.64
15568;BME280;7885;42.596;23.044;2023-03-15T05:56:25;91675.84;;;9.36;65.85
15568;BME280;7885;42.596;23.044;2023-03-15T05:58:52;91642.56;;;9.32;65.57
15568;BME280;7885;42.596;23.044;2023-03-15T06:01:19;91673.00;;;9.63;64.87
15568;BME280;7885;42.596;23.044;2023-03-15T06:03:46;91670.13;;;9.90;63.94
15568;BME280;7885;42.596;23.044;2023-03-15T06:06:12;91630.28;;;9.83;63.99
15568;BME280;7885;42.596;23.044;2023-03-15T06:08:39;91670.56;;;10.24;62.75
15568;BME280;7885;42.596;23.044;2023-03-15T06:14:29;91668.66;;;10.05;61.40
15568;BME280;7885;42.596;23.044;2023-03-15T06:16:56;91673.25;;;10.08;61.28
15568;BME280;7885;42.596;23.044;2023-03-15T06:19:23;91670.56;;;10.24;61.15
15568;BME280;7885;42.596;23.044;2023-03-15T06:21:50;91674.03;;;10.44;60.20
15568;BME280;7885;42.596;23.044;2023-03-15T06:24:16;91672.00;;;10.64;60.06
15568;BME280;7885;42.596;23.044;2023-03-15T06:26:43;91679.84;;;10.79;58.85
15568;BME280;7885;42.596;23.044;2023-03-15T06:29:10;91684.06;;;10.47;58.00
15568;BME280;7885;42.596;23.044;2023-03-15T06:31:38;91672.03;;;10.29;58.21
15568;BME280;7885;42.596;23.044;2023-03-15T06:34:05;91688.34;;;9.93;59.94
15568;BME280;7885;42.596;23.044;2023-03-15T06:36:31;91684.69;;;9.80;60.25
15568;BME280;7885;42.596;23.044;2023-03-15T06:38:58;91670.22;;;9.67;59.85
15568;BME280;7885;42.596;23.044;2023-03-15T06:41:27;91661.00;;;9.80;59.89
15568;BME280;7885;42.596;23.044;2023-03-15T06:43:54;91678.25;;;10.29;59.43
15568;BME280;7885;42.596;23.044;2023-03-15T06:46:20;91683.06;;;10.57;57.81
15568;BME280;7885;42.596;23.044;2023-03-15T06:48:49;91647.53;;;10.64;57.32
15568;BME280;7885;42.596;23.044;2023-03-15T06:51:16;91668.16;;;10.94;56.54
15568;BME280;7885;42.596;23.044;2023-03-15T06:53:42;91651.09;;;10.78;55.83
15568;BME280;7885;42.596;23.044;2023-03-15T06:56:09;91638.66;;;10.77;55.97
15568;BME280;7885;42.596;23.044;2023-03-15T06:58:36;91686.59;;;11.19;54.49
15568;BME280;7885;42.596;23.044;2023-03-15T07:01:03;91645.09;;;10.83;54.21
15568;BME280;7885;42.596;23.044;2023-03-15T07:03:30;91688.97;;;11.17;54.55
15568;BME280;7885;42.596;23.044;2023-03-15T07:05:58;91668.53;;;11.25;53.80
15568;BME280;7885;42.596;23.044;2023-03-15T07:08:25;91676.22;;;11.14;53.21
15568;BME280;7885;42.596;23.044;2023-03-15T07:10:52;91666.56;;;10.64;54.58
15568;BME280;7885;42.596;23.044;2023-03-15T07:13:19;91646.22;;;10.53;55.28
15568;BME280;7885;42.596;23.044;2023-03-15T07:15:50;91669.63;;;10.99;54.46
15568;BME280;7885;42.596;23.044;2023-03-15T07:18:17;91678.16;;;11.58;52.62
15568;BME280;7885;42.596;23.044;2023-03-15T07:20:44;91665.94;;;13.09;49.11
15568;BME280;7885;42.596;23.044;2023-03-15T07:23:12;91570.16;;;15.28;41.47
15568;BME280;7885;42.596;23.044;2023-03-15T07:25:39;91669.44;;;15.23;41.53
15568;BME280;7885;42.596;23.044;2023-03-15T07:28:05;91665.69;;;13.85;43.52
15568;BME280;7885;42.596;23.044;2023-03-15T07:30:32;91630.56;;;13.83;43.94
15568;BME280;7885;42.596;23.044;2023-03-15T07:32:59;91609.09;;;14.56;42.06
15568;BME280;7885;42.596;23.044;2023-03-15T07:35:26;91584.69;;;13.78;41.35
15568;BME280;7885;42.596;23.044;2023-03-15T07:37:52;91679.44;;;13.25;44.88
15568;BME280;7885;42.596;23.044;2023-03-15T07:40:21;91673.16;;;12.78;46.48
15568;BME280;7885;42.596;23.044;2023-03-15T07:42:47;91644.03;;;12.49;48.00
15568;BME280;7885;42.596;23.044;2023-03-15T07:45:14;91676.31;;;13.48;46.04
15568;BME280;7885;42.596;23.044;2023-03-15T07:47:41;91679.88;;;13.36;44.50
15568;BME280;7885;42.596;23.044;2023-03-15T07:50:09;91653.41;;;12.61;46.51
15568;BME280;7885;42.596;23.044;2023-03-15T07:52:36;91668.91;;;12.64;46.78
15568;BME280;7885;42.596;23.044;2023-03-15T07:55:04;91653.97;;;13.41;44.34
15568;BME280;7885;42.596;23.044;2023-03-15T07:57:34;91662.47;;;12.71;45.66
15568;BME280;7885;42.596;23.044;2023-03-15T08:00:00;91689.06;;;11.58;47.61
15568;BME280;7885;42.596;23.044;2023-03-15T08:02:28;91683.91;;;11.03;50.01
15568;BME280;7885;42.596;23.044;2023-03-15T08:04:55;91638.66;;;10.60;50.25
15568;BME280;7885;42.596;23.044;2023-03-15T08:07:23;91681.28;;;10.31;51.49
15568;BME280;7885;42.596;23.044;2023-03-15T08:09:49;91689.50;;;10.47;52.56
15568;BME280;7885;42.596;23.044;2023-03-15T08:12:16;91679.03;;;11.10;50.57
15568;BME280;7885;42.596;23.044;2023-03-15T08:14:44;91632.91;;;12.44;45.49
15568;BME280;7885;42.596;23.044;2023-03-15T08:17:11;91681.06;;;13.70;43.65
15568;BME280;7885;42.596;23.044;2023-03-15T08:19:39;91679.84;;;14.14;41.59
15568;BME280;7885;42.596;23.044;2023-03-15T08:22:06;91680.59;;;14.89;39.46
15568;BME280;7885;42.596;23.044;2023-03-15T08:24:34;91666.44;;;14.50;39.81
15568;BME280;7885;42.596;23.044;2023-03-15T08:27:01;91697.38;;;13.95;41.53
15568;BME280;7885;42.596;23.044;2023-03-15T08:29:29;91688.13;;;12.73;43.07
15568;BME280;7885;42.596;23.044;2023-03-15T08:31:57;91676.66;;;12.40;43.84
15568;BME280;7885;42.596;23.044;2023-03-15T08:34:24;91686.34;;;12.41;43.96
15568;BME280;7885;42.596;23.044;2023-03-15T08:36:51;91684.28;;;12.20;44.11
15568;BME280;7885;42.596;23.044;2023-03-15T08:39:17;91690.06;;;11.81;46.69
15568;BME280;7885;42.596;23.044;2023-03-15T08:41:44;91671.38;;;12.08;45.73
15568;BME280;7885;42.596;23.044;2023-03-15T08:44:11;91639.47;;;11.80;46.07
15568;BME280;7885;42.596;23.044;2023-03-15T08:46:38;91649.84;;;11.97;46.55
15568;BME280;7885;42.596;23.044;2023-03-15T08:49:06;91675.84;;;11.44;48.43
15568;BME280;7885;42.596;23.044;2023-03-15T08:51:33;91679.56;;;11.05;50.00
15568;BME280;7885;42.596;23.044;2023-03-15T08:54:00;91664.94;;;10.51;49.56
15568;BME280;7885;42.596;23.044;2023-03-15T08:56:30;91657.19;;;10.65;51.50
15568;BME280;7885;42.596;23.044;2023-03-15T08:58:58;91676.31;;;11.55;51.76
15568;BME280;7885;42.596;23.044;2023-03-15T09:01:24;91683.72;;;12.38;48.43
15568;BME280;7885;42.596;23.044;2023-03-15T09:03:51;91669.09;;;11.49;47.63
15568;BME280;7885;42.596;23.044;2023-03-15T09:06:20;91643.75;;;10.58;50.17
15568;BME280;7885;42.596;23.044;2023-03-15T09:08:46;91648.03;;;10.43;51.33
15568;BME280;7885;42.596;23.044;2023-03-15T09:11:13;91668.50;;;10.64;51.13
15568;BME280;7885;42.596;23.044;2023-03-15T09:13:40;91671.50;;;10.86;50.97
15568;BME280;7885;42.596;23.044;2023-03-15T09:16:07;91686.88;;;11.08;50.58
15568;BME280;7885;42.596;23.044;2023-03-15T09:18:33;91641.38;;;10.93;50.49
15568;BME280;7885;42.596;23.044;2023-03-15T09:21:00;91671.53;;;11.59;48.56
15568;BME280;7885;42.596;23.044;2023-03-15T09:23:28;91564.13;;;11.03;49.17
15568;BME280;7885;42.596;23.044;2023-03-15T09:25:55;91657.03;;;11.62;47.56
15568;BME280;7885;42.596;23.044;2023-03-15T09:28:22;91634.78;;;11.51;47.95
15568;BME280;7885;42.596;23.044;2023-03-15T09:30:51;91658.34;;;11.87;47.59
15568;BME280;7885;42.596;23.044;2023-03-15T09:33:18;91618.72;;;11.41;47.76
15568;BME280;7885;42.596;23.044;2023-03-15T09:35:48;91601.78;;;11.04;47.87
15568;BME280;7885;42.596;23.044;2023-03-15T09:38:15;91665.94;;;11.50;48.62
15568;BME280;7885;42.596;23.044;2023-03-15T09:40:44;91663.81;;;11.42;49.53
15568;BME280;7885;42.596;23.044;2023-03-15T09:43:30;91662.22;;;11.44;49.97
15568;BME280;7885;42.596;23.044;2023-03-15T09:46:09;91664.53;;;11.75;49.93
15568;BME280;7885;42.596;23.044;2023-03-15T09:48:49;91593.78;;;11.42;48.53
15568;BME280;7885;42.596;23.044;2023-03-15T09:51:31;91639.34;;;11.71;49.17
15568;BME280;7885;42.596;23.044;2023-03-15T09:54:02;91666.63;;;11.54;49.15
15568;BME280;7885;42.596;23.044;2023-03-15T09:56:35;91674.97;;;11.47;50.02
15568;BME280;7885;42.596;23.044;2023-03-15T09:59:04;91643.56;;;11.43;49.58
15568;BME280;7885;42.596;23.044;2023-03-15T10:01:34;91649.13;;;11.39;49.72
15568;BME280;7885;42.596;23.044;2023-03-15T10:04:05;91624.34;;;11.05;50.21
15568;BME280;7885;42.596;23.044;2023-03-15T10:06:34;91617.81;;;11.02;50.91
15568;BME280;7885;42.596;23.044;2023-03-15T10:09:08;91668.06;;;10.98;52.00
15568;BME280;7885;42.596;23.044;2023-03-15T10:11:42;91627.13;;;10.40;52.73
15568;BME280;7885;42.596;23.044;2023-03-15T10:14:20;91637.81;;;10.63;53.46
15568;BME280;7885;42.596;23.044;2023-03-15T10:16:51;91672.56;;;11.04;54.52
15568;BME280;7885;42.596;23.044;2023-03-15T10:19:25;91655.75;;;10.93;52.48
15568;BME280;7885;42.596;23.044;2023-03-15T10:21:57;91673.69;;;10.91;53.57
15568;BME280;7885;42.596;23.044;2023-03-15T10:24:32;91679.97;;;10.55;54.88
15568;BME280;7885;42.596;23.044;2023-03-15T10:27:12;91657.44;;;10.23;55.44
15568;BME280;7885;42.596;23.044;2023-03-15T10:29:40;91650.94;;;9.97;56.72
15568;BME280;7885;42.596;23.044;2023-03-15T10:35:28;91689.63;;;10.04;58.87
15568;BME280;7885;42.596;23.044;2023-03-15T10:37:56;91684.16;;;9.88;60.68
15568;BME280;7885;42.596;23.044;2023-03-15T10:40:40;91686.94;;;9.85;61.71
15568;BME280;7885;42.596;23.044;2023-03-15T10:43:16;91592.94;;;9.32;62.98
15568;BME280;7885;42.596;23.044;2023-03-15T10:45:46;91645.06;;;9.82;62.70
15568;BME280;7885;42.596;23.044;2023-03-15T10:48:13;91677.03;;;9.94;65.13
15568;BME280;7885;42.596;23.044;2023-03-15T10:50:40;91660.75;;;9.75;66.51
15568;BME280;7885;42.596;23.044;2023-03-15T10:53:16;91673.97;;;9.73;67.51
15568;BME280;7885;42.596;23.044;2023-03-15T10:55:45;91641.72;;;9.55;68.00
15568;BME280;7885;42.596;23.044;2023-03-15T10:58:21;91617.31;;;9.35;68.49
15568;BME280;7885;42.596;23.044;2023-03-15T11:00:58;91599.47;;;9.14;64.68
15568;BME280;7885;42.596;23.044;2023-03-15T11:03:25;91628.88;;;9.39;67.42
15568;BME280;7885;42.596;23.044;2023-03-15T11:05:53;91659.72;;;9.69;65.99
15568;BME280;7885;42.596;23.044;2023-03-15T11:08:23;91651.41;;;9.56;66.80
15568;BME280;7885;42.596;23.044;2023-03-15T11:10:55;91663.53;;;10.07;64.42
15568;BME280;7885;42.596;23.044;2023-03-15T11:13:25;91648.00;;;10.27;62.97
15568;BME280;7885;42.596;23.044;2023-03-15T11:15:57;91663.25;;;10.57;61.70
15568;BME280;7885;42.596;23.044;2023-03-15T11:18:28;91658.38;;;10.81;61.51
15568;BME280;7885;42.596;23.044;2023-03-15T11:20:56;91666.72;;;10.90;61.96
15568;BME280;7885;42.596;23.044;2023-03-15T11:23:26;91670.13;;;10.78;63.88
15568;BME280;7885;42.596;23.044;2023-03-15T11:25:54;91657.72;;;10.77;63.97
15568;BME280;7885;42.596;23.044;2023-03-15T11:28:27;91660.00;;;10.78;62.88
15568;BME280;7885;42.596;23.044;2023-03-15T11:30:56;91565.56;;;10.14;64.79
15568;BME280;7885;42.596;23.044;2023-03-15T11:33:42;91662.66;;;10.82;65.87
15568;BME280;7885;42.596;23.044;2023-03-15T11:36:14;91654.72;;;10.55;66.18
15568;BME280;7885;42.596;23.044;2023-03-15T11:38:43;91656.19;;;10.43;68.75
15568;BME280;7885;42.596;23.044;2023-03-15T11:41:17;91644.59;;;10.39;68.55
15568;BME280;7885;42.596;23.044;2023-03-15T11:43:55;91642.03;;;10.16;69.57
15568;BME280;7885;42.596;23.044;2023-03-15T11:46:28;91641.28;;;10.16;69.65
15568;BME280;7885;42.596;23.044;2023-03-15T11:49:00;91647.25;;;10.07;68.52
15568;BME280;7885;42.596;23.044;2023-03-15T11:51:32;91641.16;;;9.83;68.84
15568;BME280;7885;42.596;23.044;2023-03-15T11:54:06;91650.28;;;9.93;69.28
15568;BME280;7885;42.596;23.044;2023-03-15T11:56:47;91643.09;;;10.02;68.97
15568;BME280;7885;42.596;23.044;2023-03-15T11:59:17;91626.53;;;10.13;70.57
15568;BME280;7885;42.596;23.044;2023-03-15T12:01:45;91585.09;;;10.41;66.43
15568;BME280;7885;42.596;23.044;2023-03-15T12:04:36;91627.63;;;10.68;65.35
15568;BME280;7885;42.596;23.044;2023-03-15T12:07:04;91637.31;;;10.36;66.40
15568;BME280;7885;42.596;23.044;2023-03-15T12:09:47;91645.44;;;10.20;66.54
15568;BME280;7885;42.596;23.044;2023-03-15T12:12:36;91635.06;;;10.15;67.46
15568;BME280;7885;42.596;23.044;2023-03-15T12:15:14;91639.78;;;10.11;67.84
15568;BME280;7885;42.596;23.044;2023-03-15T12:18:02;91626.69;;;10.06;66.90
15568;BME280;7885;42.596;23.044;2023-03-15T12:20:33;91648.25;;;10.17;66.41
15568;BME280;7885;42.596;23.044;2023-03-15T12:23:20;91627.16;;;10.21;65.29
15568;BME280;7885;42.596;23.044;2023-03-15T12:25:51;91626.91;;;10.31;65.54
15568;BME280;7885;42.596;23.044;2023-03-15T12:28:21;91600.00;;;10.37;64.85
15568;BME280;7885;42.596;23.044;2023-03-15T12:30:55;91630.84;;;10.62;63.69
15568;BME280;7885;42.596;23.044;2023-03-15T12:33:24;91582.66;;;10.31;62.70
15568;BME280;7885;42.596;23.044;2023-03-15T12:35:58;91631.94;;;10.49;62.81
15568;BME280;7885;42.596;23.044;2023-03-15T12:38:31;91620.81;;;10.59;62.70
15568;BME280;7885;42.596;23.044;2023-03-15T12:41:06;91623.63;;;10.56;63.18
15568;BME280;7885;42.596;23.044;2023-03-15T12:43:38;91644.94;;;10.25;62.09
15568;BME280;7885;42.596;23.044;2023-03-15T12:46:07;91626.41;;;10.20;64.19
15568;BME280;7885;42.596;23.044;2023-03-15T12:49:08;91624.00;;;9.86;63.20
15568;BME280;7885;42.596;23.044;2023-03-15T12:51:44;91634.22;;;9.82;64.11
15568;BME280;7885;42.596;23.044;2023-03-15T12:54:19;91630.16;;;9.71;65.59
15568;BME280;7885;42.596;23.044;2023-03-15T12:56:52;91614.31;;;9.49;65.51
15568;BME280;7885;42.596;23.044;2023-03-15T12:59:29;91623.16;;;9.53;66.61
15568;BME280;7885;42.596;23.044;2023-03-15T13:02:01;91612.78;;;9.48;65.16
15568;BME280;7885;42.596;23.044;2023-03-15T13:04:28;91612.41;;;9.66;65.41
15568;BME280;7885;42.596;23.044;2023-03-15T13:07:23;91618.91;;;9.52;64.81
15568;BME280;7885;42.596;23.044;2023-03-15T13:10:15;91625.09;;;9.33;66.01
15568;BME280;7885;42.596;23.044;2023-03-15T13:12:48;91623.84;;;9.18;67.08
15568;BME280;7885;42.596;23.044;2023-03-15T13:15:20;91616.72;;;9.24;66.35
15568;BME280;7885;42.596;23.044;2023-03-15T13:17:52;91589.66;;;9.01;65.91
15568;BME280;7885;42.596;23.044;2023-03-15T13:20:35;91613.28;;;9.43;65.99
15568;BME280;7885;42.596;23.044;2023-03-15T13:23:12;91615.41;;;9.72;64.92
15568;BME280;7885;42.596;23.044;2023-03-15T13:25:46;91614.97;;;9.93;64.79